createdAt,value
2023-01-12T00:02:19.064Z,5.59
2023-01-12T00:04:45.734Z,5.19
2023-01-12T00:07:13.162Z,5.42
2023-01-12T00:09:40.879Z,5.30
2023-01-12T00:12:09.463Z,4.63
2023-01-12T00:14:36.399Z,4.52
2023-01-12T00:17:03.162Z,4.78
2023-01-12T00:19:31.341Z,4.94
2023-01-12T00:21:59.195Z,4.68
2023-01-12T00:24:29.609Z,4.70
2023-01-12T00:26:57.157Z,4.76
2023-01-12T00:29:23.983Z,4.21
2023-01-12T00:31:50.593Z,4.21
2023-01-12T00:34:17.602Z,4.34
2023-01-12T00:36:44.952Z,4.47
2023-01-12T00:39:11.490Z,4.26
2023-01-12T00:41:38.633Z,4.48
2023-01-12T00:44:05.676Z,4.64
2023-01-12T00:46:32.690Z,4.38
2023-01-12T00:48:59.356Z,4.33
2023-01-12T00:51:25.981Z,4.55
2023-01-12T00:53:52.539Z,4.77
2023-01-12T00:56:19.120Z,4.70
2023-01-12T00:58:45.701Z,4.60
2023-01-12T01:01:12.364Z,4.59
2023-01-12T01:03:38.928Z,4.51
2023-01-12T01:06:06.288Z,4.46
2023-01-12T01:08:32.926Z,5.08
2023-01-12T01:11:10.705Z,5.33
2023-01-12T01:13:37.524Z,4.54
2023-01-12T01:16:04.653Z,4.57
2023-01-12T01:18:32.041Z,3.87
2023-01-12T01:20:58.701Z,4.18
2023-01-12T01:23:25.779Z,4.02
2023-01-12T01:25:52.727Z,3.96
2023-01-12T01:28:19.516Z,3.98
2023-01-12T01:30:46.380Z,4.81
2023-01-12T01:33:13.525Z,4.68
2023-01-12T01:35:40.104Z,3.85
2023-01-12T01:38:06.911Z,3.95
2023-01-12T01:40:33.479Z,3.95
2023-01-12T01:43:00.119Z,3.93
2023-01-12T01:45:26.757Z,3.44
2023-01-12T01:47:55.624Z,3.88
2023-01-12T01:50:26.418Z,4.17
2023-01-12T01:52:57.569Z,3.76
2023-01-12T01:55:26.636Z,4.42
2023-01-12T01:58:02.754Z,3.68
2023-01-12T02:00:29.767Z,3.69
2023-01-12T02:02:56.507Z,3.91
2023-01-12T02:05:24.767Z,4.30
2023-01-12T02:07:51.356Z,4.04
2023-01-12T02:10:18.437Z,4.16
2023-01-12T02:12:45.136Z,4.42
2023-01-12T02:15:11.738Z,4.40
2023-01-12T02:17:53.092Z,4.53
2023-01-12T02:20:57.308Z,4.90
2023-01-12T02:23:26.550Z,4.88
2023-01-12T02:26:04.966Z,4.76
2023-01-12T02:28:53.256Z,4.46
2023-01-12T02:32:21.426Z,4.77
2023-01-12T02:35:10.965Z,4.11
2023-01-12T02:37:48.498Z,4.88
2023-01-12T02:40:14.968Z,4.06
2023-01-12T02:42:43.761Z,4.25
2023-01-12T02:45:24.346Z,4.33
2023-01-12T02:48:28.609Z,4.25
2023-01-12T02:51:05.772Z,4.46
2023-01-12T02:53:37.542Z,4.28
2023-01-12T02:56:05.118Z,4.00
2023-01-12T02:58:32.867Z,4.06
2023-01-12T03:00:59.717Z,4.16
2023-01-12T03:03:26.412Z,4.33
2023-01-12T03:05:55.969Z,4.16
2023-01-12T03:08:22.518Z,4.16
2023-01-12T03:11:00.412Z,4.18
2023-01-12T03:13:27.604Z,4.35
2023-01-12T03:15:55.380Z,4.24
2023-01-12T03:18:29.547Z,4.21
2023-01-12T03:20:59.998Z,3.87
2023-01-12T03:23:33.792Z,3.90
2023-01-12T03:26:00.537Z,3.54
2023-01-12T03:28:28.912Z,3.44
2023-01-12T03:30:56.941Z,3.51
2023-01-12T03:33:23.884Z,3.28
2023-01-12T03:36:04.600Z,3.70
2023-01-12T03:38:38.095Z,3.52
2023-01-12T03:41:11.370Z,3.78
2023-01-12T03:43:43.239Z,3.64
2023-01-12T03:46:18.460Z,4.03
2023-01-12T03:48:52.746Z,4.34
2023-01-12T03:51:46.620Z,4.11
2023-01-12T03:54:13.227Z,3.83
2023-01-12T03:56:40.103Z,3.83
2023-01-12T03:59:06.815Z,3.91
2023-01-12T04:01:33.685Z,4.02
2023-01-12T04:04:00.386Z,3.84
2023-01-12T04:06:27.057Z,4.11
2023-01-12T04:08:53.699Z,3.62
2023-01-12T04:11:20.348Z,3.48
2023-01-12T04:13:47.002Z,3.79
2023-01-12T04:16:13.686Z,4.10
2023-01-12T04:18:40.338Z,3.93
2023-01-12T04:21:06.966Z,3.83
2023-01-12T04:23:33.570Z,4.01
2023-01-12T04:26:00.225Z,3.92
2023-01-12T04:28:26.879Z,3.98
2023-01-12T04:30:53.487Z,3.64
2023-01-12T04:33:20.088Z,3.73
2023-01-12T04:35:47.060Z,3.69
2023-01-12T04:38:13.641Z,3.46
2023-01-12T04:40:40.303Z,3.58
2023-01-12T04:43:08.628Z,3.86
2023-01-12T04:45:39.709Z,3.89
2023-01-12T04:48:08.961Z,3.65
2023-01-12T04:50:35.616Z,3.83
2023-01-12T04:53:03.369Z,3.56
2023-01-12T04:55:30.028Z,3.38
2023-01-12T04:57:56.967Z,3.47
2023-01-12T05:00:23.704Z,3.53
2023-01-12T05:02:50.295Z,3.39
2023-01-12T05:05:16.921Z,3.33
2023-01-12T05:07:43.657Z,3.62
2023-01-12T05:10:10.927Z,3.61
2023-01-12T05:12:37.540Z,3.66
2023-01-12T05:15:04.532Z,5.70
2023-01-12T05:17:32.304Z,5.65
2023-01-12T05:20:00.802Z,4.71
2023-01-12T05:22:27.753Z,4.64
2023-01-12T05:24:54.356Z,4.78
2023-01-12T05:27:20.961Z,5.05
2023-01-12T05:29:47.595Z,5.03
2023-01-12T05:32:14.213Z,5.06
2023-01-12T05:34:40.874Z,4.70
2023-01-12T05:37:07.482Z,5.31
2023-01-12T05:39:34.127Z,5.13
2023-01-12T05:42:00.801Z,5.00
2023-01-12T05:44:27.475Z,4.65
2023-01-12T05:46:54.145Z,4.79
2023-01-12T05:49:20.796Z,4.71
2023-01-12T05:51:47.470Z,4.95
2023-01-12T05:54:14.077Z,4.59
2023-01-12T05:56:40.807Z,4.41
2023-01-12T05:59:07.414Z,4.35
2023-01-12T06:01:34.086Z,4.34
2023-01-12T06:04:01.001Z,4.12
2023-01-12T06:06:28.753Z,4.10
2023-01-12T06:08:55.393Z,4.10
2023-01-12T06:11:22.172Z,4.12
2023-01-12T06:13:48.808Z,4.29
2023-01-12T06:16:15.460Z,3.85
2023-01-12T06:18:42.118Z,3.59
2023-01-12T06:21:08.987Z,3.79
2023-01-12T06:23:36.029Z,3.79
2023-01-12T06:26:03.708Z,3.91
2023-01-12T06:28:30.360Z,3.56
2023-01-12T06:31:01.422Z,3.57
2023-01-12T06:33:28.191Z,3.29
2023-01-12T06:35:57.680Z,3.34
2023-01-12T06:38:25.351Z,3.67
2023-01-12T06:40:51.985Z,3.10
2023-01-12T06:43:18.671Z,3.60
2023-01-12T06:45:45.477Z,3.45
2023-01-12T06:48:12.187Z,3.53
2023-01-12T06:50:38.897Z,3.35
2023-01-12T06:53:05.681Z,3.62
2023-01-12T06:55:32.348Z,3.11
2023-01-12T06:58:02.860Z,3.18
2023-01-12T07:00:29.503Z,3.59
2023-01-12T07:02:56.140Z,3.42
2023-01-12T07:05:22.779Z,3.08
2023-01-12T07:07:49.445Z,3.83
2023-01-12T07:10:16.395Z,3.61
2023-01-12T07:12:43.031Z,3.58
2023-01-12T07:15:10.235Z,3.69
2023-01-12T07:17:36.841Z,3.44
2023-01-12T07:20:03.662Z,3.80
2023-01-12T07:22:30.288Z,3.88
2023-01-12T07:24:57.837Z,3.83
2023-01-12T07:27:24.619Z,3.68
2023-01-12T07:29:51.260Z,4.15
2023-01-12T07:32:17.885Z,4.17
2023-01-12T07:34:44.529Z,3.81
2023-01-12T07:37:11.217Z,4.20
2023-01-12T07:39:39.127Z,4.06
2023-01-12T07:42:05.784Z,3.97
2023-01-12T07:44:32.411Z,4.32
2023-01-12T07:46:58.993Z,4.04
2023-01-12T07:49:26.287Z,4.27
2023-01-12T07:51:53.816Z,4.32
2023-01-12T07:54:20.485Z,4.41
2023-01-12T07:56:47.162Z,4.49
2023-01-12T07:59:13.886Z,4.22
2023-01-12T08:01:40.644Z,4.44
2023-01-12T08:04:07.449Z,4.34
2023-01-12T08:06:34.476Z,4.18
2023-01-12T08:09:01.129Z,4.23
2023-01-12T08:11:27.790Z,4.16
2023-01-12T08:13:58.040Z,4.51
2023-01-12T08:16:30.279Z,3.67
2023-01-12T08:19:18.225Z,3.20
2023-01-12T08:21:47.191Z,2.81
2023-01-12T08:24:15.140Z,3.04
2023-01-12T08:26:42.397Z,3.18
2023-01-12T08:29:16.880Z,3.22
2023-01-12T08:31:43.531Z,3.00
2023-01-12T08:34:10.202Z,3.33
2023-01-12T08:36:36.831Z,3.24
2023-01-12T08:39:03.438Z,3.09
2023-01-12T08:41:30.885Z,3.01
2023-01-12T08:43:57.473Z,3.23
2023-01-12T08:46:24.082Z,3.07
2023-01-12T08:48:50.767Z,2.65
2023-01-12T08:51:17.392Z,2.69
2023-01-12T08:53:44.019Z,2.81
2023-01-12T08:56:10.629Z,2.89
2023-01-12T08:58:37.415Z,3.01
2023-01-12T09:01:08.276Z,3.22
2023-01-12T09:03:36.013Z,2.92
2023-01-12T09:06:18.413Z,2.99
2023-01-12T09:08:45.251Z,3.01
2023-01-12T09:11:12.407Z,2.74
2023-01-12T09:13:39.104Z,3.16
2023-01-12T09:16:12.583Z,2.95
2023-01-12T09:18:40.154Z,2.71
2023-01-12T09:21:08.312Z,2.78
2023-01-12T09:23:35.140Z,2.93
2023-01-12T09:26:06.048Z,3.07
2023-01-12T09:28:32.901Z,3.01
2023-01-12T09:31:07.340Z,3.11
2023-01-12T09:33:35.632Z,3.27
2023-01-12T09:36:02.250Z,3.49
2023-01-12T09:38:29.044Z,3.07
2023-01-12T09:41:02.163Z,2.81
2023-01-12T09:43:29.080Z,2.60
2023-01-12T09:45:55.719Z,2.68
2023-01-12T09:48:22.414Z,2.59
2023-01-12T09:51:04.474Z,3.12
2023-01-12T09:53:33.292Z,2.76
2023-01-12T09:56:16.963Z,2.66
2023-01-12T09:59:06.303Z,2.82
2023-01-12T10:01:32.968Z,2.95
2023-01-12T10:04:00.144Z,2.60
2023-01-12T10:06:26.769Z,2.61
2023-01-12T10:08:56.689Z,2.96
2023-01-12T10:11:43.693Z,2.77
2023-01-12T10:14:32.163Z,2.52
2023-01-12T10:17:17.278Z,2.42
2023-01-12T10:20:09.619Z,2.67
2023-01-12T10:22:45.123Z,2.48
2023-01-12T10:25:32.932Z,2.43
2023-01-12T10:27:59.889Z,2.30
2023-01-12T10:30:33.903Z,2.61
2023-01-12T10:33:20.762Z,2.55
2023-01-12T10:36:10.580Z,2.69
2023-01-12T10:38:52.748Z,2.53
2023-01-12T10:41:20.471Z,3.04
2023-01-12T10:44:05.863Z,2.81
2023-01-12T10:46:33.556Z,2.98
2023-01-12T10:49:18.844Z,2.67
2023-01-12T10:51:56.388Z,2.54
2023-01-12T10:54:43.222Z,2.69
2023-01-12T10:57:20.336Z,2.72
2023-01-12T10:59:58.007Z,2.61
2023-01-12T11:02:25.672Z,2.65
2023-01-12T11:04:53.096Z,2.95
2023-01-12T11:07:20.379Z,2.88
2023-01-12T11:09:47.299Z,2.52
2023-01-12T11:12:30.402Z,2.78
2023-01-12T11:15:00.786Z,2.79
2023-01-12T11:17:53.525Z,2.65
2023-01-12T11:20:37.062Z,2.91
2023-01-12T11:23:07.352Z,2.90
2023-01-12T11:25:36.204Z,3.09
2023-01-12T11:28:43.201Z,2.93
2023-01-12T11:31:17.198Z,2.99
2023-01-12T11:33:49.455Z,3.03
2023-01-12T11:36:18.646Z,3.02
2023-01-12T11:38:57.882Z,2.83
2023-01-12T11:41:33.472Z,2.95
2023-01-12T11:44:08.075Z,2.68
2023-01-12T11:46:38.819Z,2.94
2023-01-12T11:49:17.403Z,2.56
2023-01-12T11:51:44.196Z,2.57
2023-01-12T11:54:14.023Z,2.69
2023-01-12T11:57:12.454Z,2.39
2023-01-12T11:59:42.469Z,2.53
2023-01-12T12:02:27.368Z,2.50
2023-01-12T12:05:03.554Z,2.36
2023-01-12T12:07:54.347Z,2.23
2023-01-12T12:10:30.602Z,2.55
2023-01-12T12:13:18.849Z,2.81
2023-01-12T12:16:10.399Z,2.76
2023-01-12T12:18:55.411Z,2.54
2023-01-12T12:21:31.121Z,2.54
2023-01-12T12:24:35.738Z,2.66
2023-01-12T12:27:12.279Z,2.77
2023-01-12T12:30:06.754Z,2.87
2023-01-12T12:33:14.714Z,2.91
2023-01-12T12:35:41.555Z,2.67
2023-01-12T12:38:26.572Z,2.41
2023-01-12T12:41:01.934Z,2.41
2023-01-12T12:43:32.958Z,2.48
2023-01-12T12:46:09.551Z,2.56
2023-01-12T12:48:57.251Z,2.47
2023-01-12T12:51:23.884Z,2.21
2023-01-12T12:53:50.501Z,2.47
2023-01-12T12:56:18.735Z,2.58
2023-01-12T12:58:48.775Z,2.67
2023-01-12T13:01:21.611Z,2.67
2023-01-12T13:03:54.960Z,2.64
2023-01-12T13:06:24.619Z,2.56
2023-01-12T13:08:55.567Z,2.49
2023-01-12T13:11:49.000Z,2.65
2023-01-12T13:14:31.831Z,2.65
2023-01-12T13:17:02.128Z,2.73
2023-01-12T13:19:39.723Z,2.72
2023-01-12T13:22:27.826Z,2.72
2023-01-12T13:25:20.995Z,2.62
2023-01-12T13:27:56.518Z,2.85
2023-01-12T13:30:26.962Z,2.89
2023-01-12T13:32:53.587Z,2.79
2023-01-12T13:35:28.414Z,3.03
2023-01-12T13:38:00.613Z,3.00
2023-01-12T13:40:30.759Z,2.98
2023-01-12T13:42:58.492Z,2.83
2023-01-12T13:45:25.291Z,2.96
2023-01-12T13:47:51.911Z,3.01
2023-01-12T13:50:25.901Z,3.12
2023-01-12T13:52:56.772Z,3.22
2023-01-12T13:55:24.726Z,2.74
2023-01-12T13:57:59.136Z,3.00
2023-01-12T14:00:26.058Z,2.88
2023-01-12T14:02:52.806Z,2.70
2023-01-12T14:05:54.928Z,2.49
2023-01-12T14:08:39.653Z,2.54
2023-01-12T14:11:25.312Z,2.59
2023-01-12T14:13:58.576Z,2.44
2023-01-12T14:16:25.292Z,2.55
2023-01-12T14:18:51.950Z,2.54
2023-01-12T14:21:34.516Z,2.83
2023-01-12T14:24:23.352Z,2.36
2023-01-12T14:26:50.063Z,2.25
2023-01-12T14:29:16.740Z,1.90
2023-01-12T14:31:47.477Z,2.05
2023-01-12T14:34:31.189Z,2.21
2023-01-12T14:36:57.919Z,2.16
2023-01-12T14:39:26.535Z,2.16
2023-01-12T14:41:56.452Z,2.22
2023-01-12T14:44:24.512Z,2.35
2023-01-12T14:46:52.916Z,2.35
2023-01-12T14:49:27.081Z,2.62
2023-01-12T14:51:54.268Z,2.68
2023-01-12T14:54:27.490Z,2.60
2023-01-12T14:56:56.982Z,2.65
2023-01-12T14:59:24.590Z,2.31
2023-01-12T15:01:54.342Z,2.55
2023-01-12T15:04:22.734Z,2.95
2023-01-12T15:07:00.592Z,2.71
2023-01-12T15:09:29.491Z,2.94
2023-01-12T15:11:56.339Z,2.71
2023-01-12T15:14:25.109Z,2.66
2023-01-12T15:16:52.864Z,2.43
2023-01-12T15:19:19.516Z,2.33
2023-01-12T15:21:46.198Z,2.65
2023-01-12T15:24:28.759Z,2.64
2023-01-12T15:27:05.726Z,2.73
2023-01-12T15:29:32.891Z,2.72
2023-01-12T15:31:59.646Z,2.53
2023-01-12T15:34:26.768Z,2.64
2023-01-12T15:36:53.481Z,2.29
2023-01-12T15:39:20.166Z,2.44
2023-01-12T15:41:46.814Z,2.41
2023-01-12T15:44:13.768Z,2.74
2023-01-12T15:46:40.767Z,2.47
2023-01-12T15:49:07.551Z,2.47
2023-01-12T15:51:34.399Z,2.75
2023-01-12T15:54:01.071Z,2.89
2023-01-12T15:56:28.193Z,2.63
2023-01-12T15:58:54.865Z,2.45
2023-01-12T16:01:21.642Z,2.44
2023-01-12T16:04:15.446Z,2.60
2023-01-12T16:06:34.879Z,2.45
2023-01-12T16:09:01.554Z,2.47
2023-01-12T16:11:28.166Z,2.74
2023-01-12T16:13:54.825Z,2.77
2023-01-12T16:16:21.571Z,2.70
2023-01-12T16:18:48.313Z,2.59
2023-01-12T16:21:15.870Z,2.90
2023-01-12T16:23:42.619Z,2.88
2023-01-12T16:26:09.908Z,3.12
2023-01-12T16:28:36.670Z,2.98
2023-01-12T16:31:07.368Z,2.86
2023-01-12T16:33:34.151Z,2.66
2023-01-12T16:36:00.849Z,2.80
2023-01-12T16:38:27.892Z,2.79
2023-01-12T16:40:54.511Z,2.82
2023-01-12T16:43:21.736Z,2.66
2023-01-12T16:45:48.415Z,2.60
2023-01-12T16:48:15.081Z,47.75
2023-01-12T16:50:42.188Z,30.46
2023-01-12T16:53:09.338Z,3.26
2023-01-12T16:55:37.967Z,3.51
2023-01-12T16:58:05.243Z,2.90
2023-01-12T17:00:31.931Z,2.68
2023-01-12T17:02:59.112Z,2.86
2023-01-12T17:05:25.792Z,3.10
2023-01-12T17:07:54.295Z,28.24
2023-01-12T17:10:21.709Z,4.63
2023-01-12T17:12:52.997Z,3.70
2023-01-12T17:15:23.036Z,4.70
2023-01-12T17:17:50.200Z,6.77
2023-01-12T17:20:17.154Z,9.06
2023-01-12T17:22:43.944Z,11.38
2023-01-12T17:25:10.915Z,12.93
2023-01-12T17:27:37.784Z,14.61
2023-01-12T17:30:04.902Z,15.48
2023-01-12T17:32:32.735Z,14.87
2023-01-12T17:34:59.504Z,12.28
2023-01-12T17:37:26.105Z,14.46
2023-01-12T17:39:52.815Z,18.09
2023-01-12T17:42:19.485Z,17.08
2023-01-12T17:44:46.108Z,16.47
2023-01-12T17:47:12.778Z,12.83
2023-01-12T17:49:39.503Z,9.65
2023-01-12T17:52:06.226Z,7.08
2023-01-12T17:54:32.952Z,8.85
2023-01-12T17:56:59.693Z,7.85
2023-01-12T17:59:26.427Z,7.04
2023-01-12T18:01:53.321Z,4.47
2023-01-12T18:04:20.053Z,5.39
2023-01-12T18:06:46.662Z,5.65
2023-01-12T18:09:13.424Z,6.47
2023-01-12T18:11:40.070Z,5.17
2023-01-12T18:14:06.992Z,5.43
2023-01-12T18:16:33.801Z,5.40
2023-01-12T18:19:02.383Z,5.61
2023-01-12T18:21:29.072Z,5.25
2023-01-12T18:23:58.439Z,5.08
2023-01-12T18:26:29.582Z,4.58
2023-01-12T18:28:56.560Z,4.89
2023-01-12T18:31:26.544Z,4.83
2023-01-12T18:33:55.660Z,5.38
2023-01-12T18:36:23.658Z,4.67
2023-01-12T18:38:50.781Z,4.61
2023-01-12T18:41:18.324Z,4.51
2023-01-12T18:43:44.976Z,5.54
2023-01-12T18:46:11.685Z,4.55
2023-01-12T18:48:38.537Z,4.51
2023-01-12T18:51:05.244Z,4.63
2023-01-12T18:53:31.863Z,4.60
2023-01-12T18:55:58.838Z,4.23
2023-01-12T18:58:27.109Z,4.16
2023-01-12T19:01:13.723Z,4.06
2023-01-12T19:03:40.655Z,4.14
2023-01-12T19:06:15.298Z,4.07
2023-01-12T19:08:42.099Z,4.62
2023-01-12T19:11:10.281Z,4.94
2023-01-12T19:13:37.445Z,5.08
2023-01-12T19:16:04.362Z,5.12
2023-01-12T19:18:31.050Z,5.12
2023-01-12T19:20:58.103Z,5.55
2023-01-12T19:23:24.763Z,5.10
2023-01-12T19:25:51.399Z,4.72
2023-01-12T19:28:18.128Z,4.77
2023-01-12T19:30:45.276Z,4.99
2023-01-12T19:33:12.426Z,5.65
2023-01-12T19:35:41.080Z,6.07
2023-01-12T19:38:08.638Z,7.14
2023-01-12T19:40:36.814Z,5.99
2023-01-12T19:43:03.638Z,5.35
2023-01-12T19:45:30.309Z,6.20
2023-01-12T19:47:57.001Z,7.67
2023-01-12T19:50:23.669Z,8.51
2023-01-12T19:52:50.336Z,9.65
2023-01-12T19:55:17.010Z,8.53
2023-01-12T19:57:43.732Z,8.73
2023-01-12T20:00:13.041Z,7.69
2023-01-12T20:02:39.889Z,6.84
2023-01-12T20:05:06.650Z,7.32
2023-01-12T20:07:33.292Z,9.43
2023-01-12T20:10:00.061Z,7.81
2023-01-12T20:12:26.795Z,8.42
2023-01-12T20:14:53.450Z,8.02
2023-01-12T20:17:20.363Z,8.30
2023-01-12T20:19:47.324Z,7.76
2023-01-12T20:22:13.939Z,7.42
2023-01-12T20:24:40.571Z,7.67
2023-01-12T20:27:07.246Z,7.79
2023-01-12T20:29:34.094Z,7.14
2023-01-12T20:32:00.797Z,9.06
2023-01-12T20:34:27.490Z,9.14
2023-01-12T20:36:54.141Z,7.81
2023-01-12T20:39:20.837Z,6.83
2023-01-12T20:41:47.511Z,6.81
2023-01-12T20:44:14.935Z,9.97
2023-01-12T20:46:41.630Z,10.43
2023-01-12T20:49:08.314Z,10.63
2023-01-12T20:51:35.095Z,10.86
2023-01-12T20:54:02.280Z,10.28
2023-01-12T20:56:28.949Z,10.20
2023-01-12T20:58:56.641Z,9.64
2023-01-12T21:01:23.422Z,9.17
2023-01-12T21:03:50.171Z,13.61
2023-01-12T21:06:17.177Z,14.08
2023-01-12T21:08:44.463Z,10.06
2023-01-12T21:11:15.409Z,8.43
2023-01-12T21:13:42.106Z,7.86
2023-01-12T21:16:08.904Z,8.43
2023-01-12T21:18:35.630Z,8.82
2023-01-12T21:21:02.943Z,9.19
2023-01-12T21:23:29.659Z,8.97
2023-01-12T21:25:56.306Z,7.95
2023-01-12T21:28:23.151Z,8.36
2023-01-12T21:30:49.880Z,8.19
2023-01-12T21:33:16.632Z,7.62
2023-01-12T21:35:43.293Z,7.27
2023-01-12T21:38:10.039Z,7.38
2023-01-12T21:40:37.168Z,7.42
2023-01-12T21:43:03.807Z,7.63
2023-01-12T21:45:30.458Z,7.42
2023-01-12T21:47:58.400Z,7.77
2023-01-12T21:50:25.059Z,7.80
2023-01-12T21:52:51.688Z,7.97
2023-01-12T21:55:18.436Z,8.01
2023-01-12T21:57:45.154Z,7.60
2023-01-12T22:00:12.226Z,8.01
2023-01-12T22:02:38.885Z,7.19
2023-01-12T22:05:05.692Z,8.22
2023-01-12T22:07:32.353Z,10.04
2023-01-12T22:09:59.049Z,7.52
2023-01-12T22:12:26.884Z,7.08
2023-01-12T22:14:53.575Z,6.77
2023-01-12T22:17:20.248Z,6.52
2023-01-12T22:19:46.853Z,6.71
2023-01-12T22:22:13.550Z,7.14
2023-01-12T22:24:40.178Z,7.18
2023-01-12T22:27:06.772Z,7.51
2023-01-12T22:29:33.493Z,7.39
2023-01-12T22:32:00.306Z,6.93
2023-01-12T22:34:27.028Z,7.20
2023-01-12T22:36:53.641Z,7.14
2023-01-12T22:39:20.274Z,7.76
2023-01-12T22:41:46.905Z,7.78
2023-01-12T22:44:13.594Z,7.77
2023-01-12T22:46:40.283Z,6.98
2023-01-12T22:49:06.891Z,7.04
2023-01-12T22:51:33.622Z,7.28
2023-01-12T22:54:00.258Z,6.50
2023-01-12T22:56:26.861Z,6.37
2023-01-12T22:58:54.340Z,6.51
2023-01-12T23:01:21.495Z,6.57
2023-01-12T23:03:48.236Z,6.65
2023-01-12T23:06:15.640Z,6.30
2023-01-12T23:08:42.828Z,6.25
2023-01-12T23:11:15.350Z,6.69
2023-01-12T23:13:42.605Z,6.32
2023-01-12T23:16:10.065Z,6.36
2023-01-12T23:18:38.774Z,6.27
2023-01-12T23:21:12.242Z,6.39
2023-01-12T23:23:38.889Z,6.45
2023-01-12T23:26:06.311Z,5.81
2023-01-12T23:28:32.963Z,5.81
2023-01-12T23:31:06.429Z,5.59
2023-01-12T23:33:33.208Z,6.27
2023-01-12T23:36:07.929Z,5.03
2023-01-12T23:38:34.781Z,5.51
2023-01-12T23:41:22.431Z,5.56
2023-01-12T23:43:50.019Z,4.70
2023-01-12T23:46:16.835Z,5.18
2023-01-12T23:48:43.584Z,4.93
2023-01-12T23:51:10.218Z,5.04
2023-01-12T23:53:36.911Z,5.01
2023-01-12T23:56:07.959Z,4.84
2023-01-12T23:58:34.634Z,4.49
